MPMG

Marcos A. Gelabert International Airport

Albrook, Panama
METAR MPMG 170300Z 32005KT 9999 FEW018 26/24 Q1013 NOSIG
Observed Flight Rules
Aug-17 @ 03:00 UTC (an hour ago) Visual Flight Rules
Wind Visibility Clouds
320° at 5 knots 10,000+ meters
  • Few at 1,800' AGL
Temperatures Readings
Current 26°C / 79°F
Dewpoint 24°C / 75°F
Humidity 89%
Altimeter 29.91" Hg
Pressure 1013 hPa
Elevation 13
METAR MPMG 170300Z 32005KT 9999 FEW018 26/24 Q1013 NOSIG
Observed Flight Rules
Aug-17 @ 03:00 UTC
(an hour ago)
VFR
Wind Visibility
320° at 5 knots 10,000+ meters
Clouds
  • Few at 1,800' AGL
Temperature Dewpoint
26°C / 79°F 24°C / 75°F
Humidity Altimeter Pressure
89% 29.91" Hg 1013 hPa